Time;durP1;ratioP1;P1;durP2;ratioP2;P2;SDS_P1;SDS_P2;PMS_P1;PMS_P2;Temp;Humidity;BMP_temperature;BMP_pressure;BME280_temperature;BME280_humidity;BME280_pressure;Samples;Min_cycle;Max_cycle;Signal;HPM_P1;HPM_P2
2023/06/25 00:00:58;;;;;;;;;15.00;14.75;;;;;22.67;55.84;99334.19;5095898;27;45521;-69
2023/06/25 00:03:23;;;;;;;;;18.00;16.50;;;;;22.67;55.94;99330.66;5089084;27;45460;-69
2023/06/25 00:05:49;;;;;;;;;17.50;16.75;;;;;22.63;55.99;99330.94;5087811;27;45504;-68
2023/06/25 00:08:16;;;;;;;;;17.00;14.50;;;;;22.59;56.28;99332.19;5085869;27;45637;-68
2023/06/25 00:10:41;;;;;;;;;13.25;13.25;;;;;22.55;56.12;99332.59;5079349;27;46480;-68
2023/06/25 00:13:07;;;;;;;;;19.50;18.00;;;;;22.49;56.05;99335.78;5087176;27;45390;-69
2023/06/25 00:15:32;;;;;;;;;20.25;19.25;;;;;22.46;56.47;99336.03;5095107;27;45385;-69
2023/06/25 00:17:57;;;;;;;;;23.25;19.50;;;;;22.43;56.57;99333.66;5092809;27;45536;-68
2023/06/25 00:20:26;;;;;;;;;19.00;17.00;;;;;22.40;56.95;99331.22;5092126;27;46144;-69
2023/06/25 00:22:52;;;;;;;;;17.50;17.50;;;;;22.39;56.92;99343.78;5090019;27;45368;-68
2023/06/25 00:25:18;;;;;;;;;17.25;16.75;;;;;22.38;56.89;99334.03;5084290;27;45467;-68
2023/06/25 00:27:47;;;;;;;;;16.50;16.00;;;;;22.39;56.92;99332.19;5093086;27;45509;-68
2023/06/25 00:30:17;;;;;;;;;17.00;17.00;;;;;22.39;57.27;99335.72;5094879;27;45488;-69
2023/06/25 00:32:45;;;;;;;;;20.50;18.25;;;;;22.40;56.64;99334.75;5089992;27;45501;-68
2023/06/25 00:35:12;;;;;;;;;17.50;16.00;;;;;22.42;57.20;99343.53;5085440;27;45419;-68
2023/06/25 00:37:41;;;;;;;;;14.50;14.50;;;;;22.44;57.19;99338.03;5089559;27;45492;-68
2023/06/25 00:40:08;;;;;;;;;18.25;16.75;;;;;22.45;57.38;99337.06;5086844;27;45400;-69
2023/06/25 00:42:41;;;;;;;;;14.25;13.00;;;;;22.47;57.60;99341.28;5082193;27;45432;-69
2023/06/25 00:45:11;;;;;;;;;18.25;18.25;;;;;22.48;57.78;99329.56;5089429;27;45372;-69
2023/06/25 00:47:37;;;;;;;;;20.75;19.50;;;;;22.48;57.03;99329.56;5092500;27;45703;-69
2023/06/25 00:50:03;;;;;;;;;23.00;22.25;;;;;22.48;56.79;99334.94;5089516;27;46564;-68
2023/06/25 00:52:29;;;;;;;;;14.75;13.75;;;;;22.47;57.01;99332.38;5094157;27;45408;-68
2023/06/25 00:54:54;;;;;;;;;21.50;18.25;;;;;22.47;57.27;99330.53;5094779;27;45393;-68
2023/06/25 00:57:21;;;;;;;;;18.75;17.00;;;;;22.45;57.15;99327.16;5087443;27;45521;-68
2023/06/25 00:59:48;;;;;;;;;19.50;18.50;;;;;22.44;57.47;99327.28;5092894;27;45539;-68
2023/06/25 01:02:34;;;;;;;;;19.25;18.75;;;;;22.43;57.52;99336.34;5090111;27;45402;-69
2023/06/25 01:05:11;;;;;;;;;20.50;19.00;;;;;22.41;57.58;99328.41;5075145;27;45519;-69
2023/06/25 01:07:37;;;;;;;;;14.25;14.00;;;;;22.41;57.53;99336.47;5087719;27;45506;-68
2023/06/25 01:10:04;;;;;;;;;15.75;15.50;;;;;22.40;57.08;99323.16;5094283;27;46482;-68
2023/06/25 01:12:29;;;;;;;;;17.75;17.25;;;;;22.38;57.28;99319.75;5092095;27;45444;-69
2023/06/25 01:14:56;;;;;;;;;24.00;21.75;;;;;22.37;57.40;99326.09;5094351;27;45439;-69
2023/06/25 01:17:22;;;;;;;;;19.00;18.00;;;;;22.36;57.26;99317.19;5089301;27;45404;-68
2023/06/25 01:19:47;;;;;;;;;21.00;19.00;;;;;22.35;57.18;99320.00;5091423;27;45399;-69
2023/06/25 01:22:15;;;;;;;;;21.00;18.50;;;;;22.32;57.46;99315.72;5090273;27;45432;-69
2023/06/25 01:24:44;;;;;;;;;20.75;18.75;;;;;22.29;57.21;99318.69;5090929;27;45528;-69
2023/06/25 01:27:10;;;;;;;;;16.25;15.75;;;;;22.27;57.13;99320.66;5089960;27;45366;-69
2023/06/25 01:29:38;;;;;;;;;17.00;16.25;;;;;22.25;57.16;99319.94;5094597;27;46375;-69
2023/06/25 01:32:06;;;;;;;;;20.25;20.25;;;;;22.20;57.58;99319.47;5075100;27;45412;-69
2023/06/25 01:34:31;;;;;;;;;19.75;17.00;;;;;22.17;57.52;99320.59;5076070;27;45435;-69
2023/06/25 01:36:56;;;;;;;;;18.00;17.00;;;;;22.11;58.11;99310.38;5091836;27;45545;-68
2023/06/25 01:39:22;;;;;;;;;18.50;17.50;;;;;22.10;58.42;99313.19;5094270;27;46281;-68
2023/06/25 01:41:48;;;;;;;;;14.50;14.50;;;;;22.07;58.27;99314.28;5091867;27;45428;-68
2023/06/25 01:44:34;;;;;;;;;17.25;17.25;;;;;22.05;57.98;99318.09;5071594;27;45449;-68
2023/06/25 01:47:00;;;;;;;;;21.50;20.75;;;;;22.03;58.71;99322.72;5092357;27;45676;-67
2023/06/25 01:49:26;;;;;;;;;19.25;19.25;;;;;22.01;58.65;99325.53;5089748;27;45515;-68
2023/06/25 01:51:51;;;;;;;;;21.25;18.75;;;;;22.00;58.70;99326.53;5093543;27;45449;-67
2023/06/25 01:54:17;;;;;;;;;19.50;16.00;;;;;22.00;58.94;99320.28;5092004;27;45330;-67
2023/06/25 01:56:42;;;;;;;;;19.50;18.25;;;;;21.97;58.45;99321.38;5096940;27;45722;-69
2023/06/25 01:59:08;;;;;;;;;16.25;15.50;;;;;21.95;58.79;99320.66;5072552;27;48202;-68
2023/06/25 02:01:34;;;;;;;;;17.00;17.00;;;;;21.93;58.81;99320.78;5096207;27;45429;-68
2023/06/25 02:04:00;;;;;;;;;18.25;15.75;;;;;21.90;58.62;99318.38;5087616;27;45574;-68
2023/06/25 02:06:25;;;;;;;;;18.75;16.00;;;;;21.89;58.83;99329.22;5093683;27;45640;-68
2023/06/25 02:08:50;;;;;;;;;19.25;18.50;;;;;21.88;58.91;99320.31;5086599;27;45517;-68
2023/06/25 02:11:16;;;;;;;;;17.50;17.25;;;;;21.86;59.11;99316.91;5086260;27;45539;-68
2023/06/25 02:13:41;;;;;;;;;21.25;18.75;;;;;21.85;59.38;99325.09;5088639;27;45458;-68
2023/06/25 02:16:07;;;;;;;;;23.00;18.00;;;;;21.83;59.07;99319.84;5096279;27;45570;-68
2023/06/25 02:18:32;;;;;;;;;20.25;18.00;;;;;21.82;59.48;99317.28;5091570;27;45968;-68
2023/06/25 02:20:58;;;;;;;;;20.50;18.75;;;;;21.78;59.57;99311.34;5096958;27;45392;-68
2023/06/25 02:23:24;;;;;;;;;20.50;19.25;;;;;21.77;59.84;99308.78;5092016;27;45391;-68
2023/06/25 02:25:52;;;;;;;;;20.75;19.50;;;;;21.76;59.76;99313.28;5095429;27;45372;-68
2023/06/25 02:28:18;;;;;;;;;18.75;17.25;;;;;21.75;59.92;99308.91;5087235;27;46469;-68
2023/06/25 02:30:44;;;;;;;;;19.50;19.00;;;;;21.73;60.58;99316.22;5093723;27;45475;-68
2023/06/25 02:33:10;;;;;;;;;18.75;16.25;;;;;21.71;60.87;99320.00;5089452;27;45437;-68
2023/06/25 02:35:36;;;;;;;;;16.75;16.75;;;;;21.66;60.71;99317.69;5072256;27;45479;-68
2023/06/25 02:38:02;;;;;;;;;18.75;17.50;;;;;21.61;61.08;99309.19;5090393;27;45519;-68
2023/06/25 02:40:27;;;;;;;;;17.00;14.25;;;;;21.57;61.56;99311.28;5093047;27;45463;-68
2023/06/25 02:42:53;;;;;;;;;19.25;18.75;;;;;21.55;61.64;99312.38;5074566;27;45836;-68
2023/06/25 02:45:19;;;;;;;;;22.75;18.50;;;;;21.53;61.49;99309.81;5096084;27;45439;-68
2023/06/25 02:47:44;;;;;;;;;19.50;19.00;;;;;21.52;61.57;99313.47;5091120;27;46143;-68
2023/06/25 02:50:10;;;;;;;;;18.00;18.00;;;;;21.52;61.52;99312.63;5095261;27;45409;-68
2023/06/25 02:52:35;;;;;;;;;22.00;20.25;;;;;21.50;61.68;99312.75;5089850;27;45455;-68
2023/06/25 02:55:00;;;;;;;;;19.50;19.25;;;;;21.49;61.66;99312.88;5095753;27;45258;-68
2023/06/25 02:57:29;;;;;;;;;18.50;18.50;;;;;21.45;61.79;99312.25;5089564;27;45337;-68
2023/06/25 02:59:55;;;;;;;;;21.00;18.00;;;;;21.42;61.92;99317.03;5095307;27;45487;-67
2023/06/25 03:02:20;;;;;;;;;20.25;17.75;;;;;21.42;61.79;99322.41;5089943;27;45456;-67
2023/06/25 03:04:46;;;;;;;;;21.50;18.25;;;;;21.40;61.81;99329.72;5087351;27;45469;-68
2023/06/25 03:07:11;;;;;;;;;18.00;17.25;;;;;21.38;61.97;99321.81;5093253;27;46364;-68
2023/06/25 03:09:37;;;;;;;;;19.75;19.00;;;;;21.36;62.29;99325.59;5094634;27;45468;-68
2023/06/25 03:12:02;;;;;;;;;19.50;19.50;;;;;21.33;62.66;99332.03;5093676;27;45433;-67
2023/06/25 03:14:28;;;;;;;;;18.25;16.50;;;;;21.29;63.07;99327.91;5081257;27;45381;-68
2023/06/25 03:16:53;;;;;;;;;20.00;18.50;;;;;21.27;62.51;99324.50;5092159;27;46140;-67
2023/06/25 03:19:18;;;;;;;;;21.75;19.75;;;;;21.22;63.09;99327.56;5095435;27;45292;-68
2023/06/25 03:21:44;;;;;;;;;20.75;19.00;;;;;21.20;63.29;99334.00;5091554;27;45882;-67
2023/06/25 03:24:09;;;;;;;;;19.00;19.00;;;;;21.17;63.26;99337.75;5093655;27;45380;-67
2023/06/25 03:26:35;;;;;;;;;20.75;19.50;;;;;21.15;63.59;99331.66;5094503;27;46446;-67
2023/06/25 03:29:00;;;;;;;;;25.75;24.50;;;;;21.12;63.13;99329.22;5093664;27;45360;-68
2023/06/25 03:31:25;;;;;;;;;21.75;18.50;;;;;21.11;63.67;99334.72;5095543;27;45937;-68
2023/06/25 03:33:51;;;;;;;;;25.00;23.75;;;;;21.08;63.45;99327.78;5084664;27;45494;-67
2023/06/25 03:36:16;;;;;;;;;20.00;19.75;;;;;21.08;63.98;99337.66;5095803;27;45453;-68
2023/06/25 03:38:41;;;;;;;;;21.00;18.75;;;;;21.08;64.00;99335.81;5086263;27;45486;-68
2023/06/25 03:41:07;;;;;;;;;17.00;15.00;;;;;21.07;63.56;99334.13;5096189;27;45404;-68
2023/06/25 03:43:32;;;;;;;;;26.25;23.25;;;;;21.05;63.95;99330.72;5094406;27;45455;-68
2023/06/25 03:45:58;;;;;;;;;19.25;18.25;;;;;21.05;63.66;99335.22;5095595;27;45872;-68
2023/06/25 03:48:23;;;;;;;;;19.50;19.25;;;;;21.03;63.95;99335.34;5089971;27;45544;-68
2023/06/25 03:50:48;;;;;;;;;22.00;21.50;;;;;21.03;64.22;99327.28;5095262;27;45662;-68
2023/06/25 03:53:16;;;;;;;;;24.50;22.25;;;;;21.03;63.99;99335.34;5084259;27;45499;-68
2023/06/25 03:55:41;;;;;;;;;20.75;20.75;;;;;21.04;64.06;99345.09;5095440;27;45405;-68
2023/06/25 03:58:07;;;;;;;;;19.50;18.00;;;;;21.09;64.22;99342.91;5088267;27;45492;-67
2023/06/25 04:00:32;;;;;;;;;22.50;19.50;;;;;21.17;63.68;99340.44;5095596;27;45474;-67
2023/06/25 04:02:58;;;;;;;;;21.25;18.25;;;;;21.22;63.61;99337.44;5088654;27;45466;-68
2023/06/25 04:05:23;;;;;;;;;20.50;20.50;;;;;21.27;63.41;99334.38;5094991;27;45493;-68
2023/06/25 04:07:48;;;;;;;;;21.50;21.25;;;;;21.28;63.70;99336.94;5087568;27;45422;-67
2023/06/25 04:10:14;;;;;;;;;23.00;18.25;;;;;21.28;63.07;99331.59;5095704;27;45483;-67
2023/06/25 04:12:39;;;;;;;;;22.50;18.00;;;;;21.31;63.34;99335.81;5106375;27;45638;-68
2023/06/25 04:15:05;;;;;;;;;20.25;19.25;;;;;21.33;63.05;99339.22;5090974;27;45894;-68
2023/06/25 04:17:31;;;;;;;;;20.00;19.50;;;;;21.36;62.91;99330.94;5090860;27;45411;-68
2023/06/25 04:19:56;;;;;;;;;23.25;20.00;;;;;21.37;63.06;99336.19;5093441;27;45367;-68
2023/06/25 04:22:22;;;;;;;;;23.00;21.00;;;;;21.39;63.20;99330.69;5091869;27;45360;-68
2023/06/25 04:24:47;;;;;;;;;21.25;21.25;;;;;21.41;62.67;99334.97;5094211;27;46425;-68
2023/06/25 04:27:12;;;;;;;;;19.00;19.00;;;;;21.43;62.83;99332.16;5092249;27;45376;-68
2023/06/25 04:29:38;;;;;;;;;19.00;17.50;;;;;21.42;63.37;99331.31;5094616;27;45793;-68
2023/06/25 04:32:04;;;;;;;;;18.25;18.25;;;;;21.43;62.98;99337.53;5092623;27;45629;-68
2023/06/25 04:34:29;;;;;;;;;20.25;19.50;;;;;21.46;63.04;99342.63;5087375;27;46096;-69
2023/06/25 04:36:54;;;;;;;;;18.25;18.00;;;;;21.47;62.10;99336.28;5079343;27;45416;-69
2023/06/25 04:39:20;;;;;;;;;19.50;18.50;;;;;21.48;62.47;99344.22;5089645;27;45548;-67
2023/06/25 04:41:45;;;;;;;;;22.00;18.75;;;;;21.46;62.28;99339.94;5093238;27;45526;-69
2023/06/25 04:44:11;;;;;;;;;17.50;17.50;;;;;21.46;62.96;99348.00;5090057;27;46514;-69
2023/06/25 04:46:36;;;;;;;;;20.00;19.25;;;;;21.47;62.92;99352.38;5094334;27;45492;-69
2023/06/25 04:49:01;;;;;;;;;22.25;20.00;;;;;21.45;62.61;99343.63;5087308;27;46089;-69
2023/06/25 04:51:27;;;;;;;;;19.75;18.75;;;;;21.44;62.71;99347.28;5094222;27;45562;-69
2023/06/25 04:53:52;;;;;;;;;24.25;22.50;;;;;21.45;62.68;99351.69;5081417;27;46455;-68
2023/06/25 04:56:18;;;;;;;;;23.00;22.00;;;;;21.45;62.78;99346.31;5094527;27;45399;-69
2023/06/25 04:58:43;;;;;;;;;22.75;21.50;;;;;21.49;62.86;99350.44;5087533;27;45379;-69
2023/06/25 05:01:09;;;;;;;;;24.25;24.00;;;;;21.52;63.16;99350.19;5094850;27;45435;-69
2023/06/25 05:03:34;;;;;;;;;20.50;18.75;;;;;21.55;63.11;99345.44;5090065;27;46310;-62
2023/06/25 05:06:00;;;;;;;;;20.25;19.00;;;;;21.62;63.02;99345.75;5093869;27;45324;-63
2023/06/25 05:08:25;;;;;;;;;19.25;19.25;;;;;21.67;62.64;99348.06;5087332;27;45524;-64
2023/06/25 05:10:51;;;;;;;;;20.75;17.50;;;;;21.68;62.52;99347.09;5094379;27;45375;-64
2023/06/25 05:13:16;;;;;;;;;25.75;24.00;;;;;21.67;62.39;99348.94;5087855;27;45561;-64
2023/06/25 05:15:41;;;;;;;;;20.25;18.50;;;;;21.67;62.38;99342.72;5075986;27;45446;-65
2023/06/25 05:18:08;;;;;;;;;20.50;19.75;;;;;21.69;62.49;99346.13;5088895;27;45455;-64
2023/06/25 05:20:35;;;;;;;;;19.75;19.75;;;;;21.70;62.83;99354.06;5090263;27;45527;-65
2023/06/25 05:23:09;;;;;;;;;20.25;20.25;;;;;21.71;62.72;99345.03;5083933;27;46250;-64
2023/06/25 05:25:35;;;;;;;;;24.75;21.00;;;;;21.73;62.22;99350.25;5088955;27;45432;-65
2023/06/25 05:28:01;;;;;;;;;21.50;21.25;;;;;21.74;62.62;99358.19;5089997;27;45405;-64
2023/06/25 05:30:31;;;;;;;;;24.25;22.25;;;;;21.76;62.83;99358.94;5093199;27;45408;-64
2023/06/25 05:32:57;;;;;;;;;21.00;20.00;;;;;21.76;62.50;99350.88;5091714;27;45567;-64
2023/06/25 05:35:23;;;;;;;;;19.50;18.25;;;;;21.78;62.29;99356.13;5071346;27;45390;-64
2023/06/25 05:37:49;;;;;;;;;19.25;19.25;;;;;21.81;62.27;99358.53;5090049;27;45539;-64
2023/06/25 05:40:15;;;;;;;;;22.00;21.75;;;;;21.81;62.49;99359.38;5097225;27;45393;-64
2023/06/25 05:42:40;;;;;;;;;22.50;21.00;;;;;21.83;62.29;99360.09;5073362;27;48627;-64
2023/06/25 05:45:07;;;;;;;;;23.50;21.25;;;;;21.85;62.19;99363.53;5097480;27;45385;-64
2023/06/25 05:47:32;;;;;;;;;21.50;21.50;;;;;21.86;62.23;99359.84;5094819;27;45479;-64
2023/06/25 05:49:57;;;;;;;;;24.00;22.00;;;;;21.89;62.63;99348.03;5091162;27;45530;-64
2023/06/25 05:52:23;;;;;;;;;21.00;20.25;;;;;21.91;62.25;99346.06;5093260;27;46459;-64
2023/06/25 05:54:48;;;;;;;;;22.75;20.50;;;;;21.98;62.31;99346.38;5078861;27;45782;-64
2023/06/25 05:57:14;;;;;;;;;22.75;21.75;;;;;22.03;62.13;99346.91;5094014;27;45384;-64
2023/06/25 05:59:39;;;;;;;;;21.75;20.25;;;;;22.07;62.03;99348.34;5094681;27;45458;-64
2023/06/25 06:02:07;;;;;;;;;18.25;16.50;;;;;22.10;61.68;99342.72;5094956;27;45408;-64
2023/06/25 06:04:36;;;;;;;;;20.50;19.50;;;;;22.14;61.34;99344.16;5091877;27;45372;-64
2023/06/25 06:07:02;;;;;;;;;18.00;18.00;;;;;22.18;60.96;99351.81;5094945;27;45590;-64
2023/06/25 06:09:27;;;;;;;;;19.00;17.75;;;;;22.23;61.08;99346.94;5093522;27;45529;-64
2023/06/25 06:11:53;;;;;;;;;21.50;20.25;;;;;22.27;61.45;99345.69;5094246;27;45484;-64
2023/06/25 06:14:18;;;;;;;;;25.00;22.00;;;;;22.32;60.97;99344.44;5090237;27;45575;-64
2023/06/25 06:16:44;;;;;;;;;23.00;22.00;;;;;22.31;60.62;99343.59;5095290;27;45570;-64
2023/06/25 06:19:09;;;;;;;;;21.00;19.75;;;;;22.35;60.37;99345.03;5094345;27;45488;-64
2023/06/25 06:21:34;;;;;;;;;18.25;18.25;;;;;22.38;60.43;99343.91;5096304;27;46118;-64
2023/06/25 06:24:00;;;;;;;;;19.50;19.25;;;;;22.42;60.84;99348.91;5090842;27;45828;-64
2023/06/25 06:26:26;;;;;;;;;20.75;20.50;;;;;22.44;60.46;99341.56;5084803;27;45388;-64
2023/06/25 06:28:52;;;;;;;;;19.50;19.50;;;;;22.47;60.16;99337.75;5083064;27;45788;-65
2023/06/25 06:31:17;;;;;;;;;20.75;18.25;;;;;22.49;60.07;99344.69;5078169;27;46507;-64
2023/06/25 06:33:43;;;;;;;;;21.50;19.50;;;;;22.51;59.89;99340.06;5085594;27;45628;-64
2023/06/25 06:36:08;;;;;;;;;19.50;18.75;;;;;22.54;59.34;99347.00;5095907;27;45346;-64
2023/06/25 06:38:34;;;;;;;;;19.00;18.75;;;;;22.56;59.06;99340.50;5086037;27;45511;-64
2023/06/25 06:40:59;;;;;;;;;23.75;20.25;;;;;22.60;59.31;99338.44;5095107;27;45542;-64
2023/06/25 06:43:25;;;;;;;;;21.75;19.75;;;;;22.63;59.12;99336.31;5084501;27;45352;-64
2023/06/25 06:45:50;;;;;;;;;17.00;17.00;;;;;22.69;59.23;99340.31;5096609;27;45900;-64
2023/06/25 06:48:15;;;;;;;;;23.25;22.00;;;;;22.77;59.29;99345.06;5089404;27;45534;-64
2023/06/25 06:50:41;;;;;;;;;19.75;19.00;;;;;22.81;59.36;99333.88;5095540;27;45430;-64
2023/06/25 06:53:06;;;;;;;;;19.25;18.75;;;;;22.84;59.67;99340.84;5089243;27;45538;-65
2023/06/25 06:55:32;;;;;;;;;18.25;18.25;;;;;22.89;59.07;99339.47;5096426;27;45469;-65
2023/06/25 06:57:58;;;;;;;;;20.75;19.00;;;;;22.92;59.38;99344.56;5087561;27;45551;-64
2023/06/25 07:00:23;;;;;;;;;22.00;22.00;;;;;22.98;59.24;99341.34;5095305;27;45395;-64
2023/06/25 07:02:48;;;;;;;;;21.75;18.75;;;;;23.05;58.92;99338.13;5091424;27;45477;-64
2023/06/25 07:05:14;;;;;;;;;19.25;19.25;;;;;23.08;58.73;99333.31;5095331;27;45393;-64
2023/06/25 07:07:41;;;;;;;;;22.00;20.00;;;;;23.13;58.67;99333.75;5091965;27;45479;-65
2023/06/25 07:10:06;;;;;;;;;18.50;17.75;;;;;23.22;58.91;99335.63;5094989;27;45620;-64
2023/06/25 07:12:33;;;;;;;;;22.25;20.25;;;;;23.27;58.29;99341.47;5089179;27;45516;-64
2023/06/25 07:14:58;;;;;;;;;20.25;19.75;;;;;23.34;58.42;99339.06;5073566;28;45414;-65
2023/06/25 07:17:24;;;;;;;;;18.75;17.50;;;;;23.41;58.29;99337.53;5084204;27;45425;-65
2023/06/25 07:19:50;;;;;;;;;19.00;18.75;;;;;23.48;58.32;99340.50;5073681;27;47274;-64
2023/06/25 07:22:15;;;;;;;;;20.50;17.50;;;;;23.55;58.32;99341.72;5091459;27;45345;-64
2023/06/25 07:24:41;;;;;;;;;19.25;19.25;;;;;23.61;58.12;99341.16;5094305;27;45460;-64
2023/06/25 07:27:06;;;;;;;;;19.00;19.00;;;;;23.67;57.67;99340.59;5093211;27;45420;-65
2023/06/25 07:29:32;;;;;;;;;24.75;22.25;;;;;23.72;57.25;99340.19;5095300;27;45895;-63
2023/06/25 07:31:57;;;;;;;;;21.00;20.00;;;;;23.77;57.02;99338.78;5091708;27;45403;-63
2023/06/25 07:34:22;;;;;;;;;24.00;22.00;;;;;23.84;57.42;99344.44;5087456;27;45693;-64
2023/06/25 07:36:48;;;;;;;;;19.50;18.00;;;;;23.89;57.06;99339.50;5093520;27;45467;-64
2023/06/25 07:39:25;;;;;;;;;20.25;18.25;;;;;23.94;57.15;99337.25;5087527;27;45528;-64
2023/06/25 07:41:51;;;;;;;;;19.50;18.25;;;;;24.00;57.01;99333.97;5092268;27;45388;-64
2023/06/25 07:44:17;;;;;;;;;19.50;19.50;;;;;24.07;56.88;99327.03;5089171;27;45397;-64
2023/06/25 07:46:42;;;;;;;;;23.25;23.00;;;;;24.15;56.77;99323.63;5093813;27;45343;-64
2023/06/25 07:49:08;;;;;;;;;20.00;18.75;;;;;24.22;56.28;99327.44;5083917;27;45420;-64
2023/06/25 07:51:33;;;;;;;;;20.25;18.75;;;;;24.27;55.61;99322.53;5084661;27;45447;-64
2023/06/25 07:53:58;;;;;;;;;18.75;17.25;;;;;24.32;55.98;99329.16;5086337;27;45416;-64
2023/06/25 07:56:24;;;;;;;;;16.25;15.75;;;;;24.38;55.41;99325.06;5088187;27;45503;-64
2023/06/25 07:58:49;;;;;;;;;22.25;18.25;;;;;24.46;55.26;99321.66;5083768;27;46414;-64
2023/06/25 08:01:14;;;;;;;;;20.25;19.00;;;;;24.50;55.20;99314.97;5088921;27;45534;-64
2023/06/25 08:03:40;;;;;;;;;19.00;19.00;;;;;24.56;55.36;99331.41;5086461;27;45373;-64
2023/06/25 08:06:05;;;;;;;;;20.00;19.00;;;;;24.63;55.37;99327.13;5088155;27;45419;-64
2023/06/25 08:08:30;;;;;;;;;18.50;18.50;;;;;24.68;55.06;99319.47;5086196;27;46319;-64
2023/06/25 08:10:56;;;;;;;;;18.75;17.75;;;;;24.73;55.28;99312.78;5094349;27;45446;-64
2023/06/25 08:13:21;;;;;;;;;18.25;17.00;;;;;24.80;55.14;99308.50;5089795;27;45480;-64
2023/06/25 08:15:47;;;;;;;;;22.75;22.25;;;;;24.84;55.38;99310.75;5089514;27;45475;-64
2023/06/25 08:18:12;;;;;;;;;19.25;18.75;;;;;24.91;54.77;99302.94;5086129;27;46178;-64
2023/06/25 08:20:38;;;;;;;;;18.25;18.25;;;;;24.98;55.05;99304.91;5093979;27;45438;-64
2023/06/25 08:23:03;;;;;;;;;19.75;17.75;;;;;25.06;54.79;99308.72;5075427;27;45427;-64
2023/06/25 08:25:31;;;;;;;;;17.75;17.75;;;;;25.11;54.52;99299.19;5094937;27;45477;-64
2023/06/25 08:27:56;;;;;;;;;21.50;19.50;;;;;25.16;54.73;99298.72;5094151;27;46636;-66
2023/06/25 08:30:22;;;;;;;;;20.25;18.25;;;;;25.21;54.76;99302.69;5075769;27;45395;-64
2023/06/25 08:32:47;;;;;;;;;19.75;17.50;;;;;25.25;55.05;99300.53;5110774;27;45400;-73
2023/06/25 08:35:13;;;;;;;;;19.25;19.25;;;;;25.29;54.38;99302.78;5067391;27;45400;-73
2023/06/25 08:37:38;;;;;;;;;19.25;18.75;;;;;25.35;54.41;99301.31;5087280;27;45649;-73
2023/06/25 08:40:04;;;;;;;;;22.25;21.00;;;;;25.44;54.46;99302.28;5091882;27;45393;-74
2023/06/25 08:42:31;;;;;;;;;19.50;18.75;;;;;25.52;54.50;99297.81;5094253;27;45433;-72
2023/06/25 08:44:57;;;;;;;;;13.75;13.50;;;;;25.59;53.97;99298.06;5087441;27;45548;-72
2023/06/25 08:47:26;;;;;;;;;19.50;19.25;;;;;25.62;53.94;99301.34;5093170;27;45428;-72
2023/06/25 08:49:54;;;;;;;;;21.25;20.50;;;;;25.67;53.96;99303.56;5088751;27;45573;-73
2023/06/25 08:52:23;;;;;;;;;23.00;20.75;;;;;25.72;53.90;99301.25;5074186;27;45456;-73
2023/06/25 08:54:49;;;;;;;;;33.50;30.50;;;;;25.79;53.92;99296.97;5088895;27;45452;-72
2023/06/25 08:57:16;;;;;;;;;21.25;20.75;;;;;25.85;53.76;99301.72;5093566;27;45670;-72
2023/06/25 08:59:42;;;;;;;;;19.00;17.50;;;;;25.92;53.47;99301.97;5090345;27;45642;-72
2023/06/25 09:02:07;;;;;;;;;18.75;18.75;;;;;25.97;53.26;99300.50;5088089;27;45996;-72
2023/06/25 09:04:32;;;;;;;;;18.25;16.75;;;;;26.03;52.89;99296.31;5090862;27;45326;-73
2023/06/25 09:07:08;;;;;;;;;21.25;20.25;;;;;26.06;52.77;99285.19;5082512;27;46699;-73
2023/06/25 09:09:34;;;;;;;;;19.40;19.40;;;;;26.10;52.15;99291.16;5091661;27;45396;-72
2023/06/25 09:11:59;;;;;;;;;20.25;20.25;;;;;26.11;51.98;99288.28;5089250;27;45466;-72
2023/06/25 09:14:25;;;;;;;;;22.00;22.00;;;;;26.13;51.16;99282.75;5072889;27;45521;-72
2023/06/25 09:16:51;;;;;;;;;15.25;14.75;;;;;26.11;51.52;99288.28;5074596;27;46051;-72
2023/06/25 09:19:20;;;;;;;;;18.00;17.25;;;;;26.13;51.13;99285.44;5087320;27;45448;-71
2023/06/25 09:21:47;;;;;;;;;20.75;19.75;;;;;26.14;51.30;99285.28;5084805;27;45440;-72
2023/06/25 09:24:14;;;;;;;;;21.00;20.00;;;;;26.17;51.34;99286.81;5073042;27;45423;-73
2023/06/25 09:26:53;;;;;;;;;20.50;16.50;;;;;26.22;51.57;99288.03;5082284;27;45766;-72
2023/06/25 09:29:21;;;;;;;;;23.25;23.00;;;;;26.28;50.69;99279.31;5092455;27;45509;-72
2023/06/25 09:31:48;;;;;;;;;19.50;19.50;;;;;26.34;50.65;99276.00;5079837;27;45425;-71
2023/06/25 09:34:15;;;;;;;;;20.50;18.50;;;;;26.40;50.71;99279.94;5065006;27;45454;-72
2023/06/25 09:36:41;;;;;;;;;17.75;17.75;;;;;26.44;50.59;99278.63;5081264;27;46237;-72
2023/06/25 09:39:08;;;;;;;;;21.25;21.25;;;;;26.47;49.88;99281.00;5091161;27;45455;-72
2023/06/25 09:41:36;;;;;;;;;19.75;18.00;;;;;26.51;49.90;99276.94;5090846;27;45446;-72
2023/06/25 09:44:06;;;;;;;;;17.25;16.00;;;;;26.57;49.91;99276.31;5089187;27;45477;-73
2023/06/25 09:46:36;;;;;;;;;17.75;17.75;;;;;26.62;49.47;99268.59;5088222;27;45532;-72
2023/06/25 09:49:03;;;;;;;;;18.00;18.00;;;;;26.67;49.21;99270.78;5092030;27;45330;-72
2023/06/25 09:51:45;;;;;;;;;20.75;20.75;;;;;26.73;48.96;99267.47;5084866;27;45539;-73
2023/06/25 09:54:12;;;;;;;;;20.25;20.25;;;;;26.79;49.71;99261.41;5088886;27;45507;-72
2023/06/25 09:56:42;;;;;;;;;17.50;16.75;;;;;26.83;49.29;99259.22;5086610;27;45498;-72
2023/06/25 09:59:08;;;;;;;;;18.00;18.00;;;;;26.87;48.84;99261.44;5088654;27;45415;-72
2023/06/25 10:01:33;;;;;;;;;23.75;20.00;;;;;26.93;48.49;99251.84;5098601;27;45422;-73
2023/06/25 10:03:59;;;;;;;;;18.50;16.50;;;;;27.01;48.67;99260.84;5107903;27;45541;-72
2023/06/25 10:06:25;;;;;;;;;21.00;19.25;;;;;27.07;48.06;99249.41;5089379;27;46059;-72
2023/06/25 10:08:50;;;;;;;;;15.00;14.75;;;;;27.12;47.71;99248.06;5069646;27;46013;-72
2023/06/25 10:11:16;;;;;;;;;18.25;16.50;;;;;27.16;47.90;99246.69;5071245;27;45377;-71
2023/06/25 10:13:45;;;;;;;;;18.25;17.00;;;;;27.19;47.17;99246.38;5089164;27;45478;-72
2023/06/25 10:16:17;;;;;;;;;20.75;19.75;;;;;27.17;47.41;99243.84;5083444;27;45413;-72
2023/06/25 10:18:43;;;;;;;;;17.75;17.75;;;;;27.19;47.11;99238.25;5095709;27;45692;-73
2023/06/25 10:21:17;;;;;;;;;19.75;17.50;;;;;27.21;46.71;99239.78;5073142;27;45307;-73
2023/06/25 10:23:43;;;;;;;;;19.00;18.00;;;;;27.26;47.28;99233.91;5096668;27;45416;-73
2023/06/25 10:26:13;;;;;;;;;16.75;16.00;;;;;27.28;46.97;99232.72;5093721;27;45493;-73
2023/06/25 10:28:38;;;;;;;;;19.25;17.00;;;;;27.35;47.68;99228.31;5096045;27;45400;-73
2023/06/25 10:31:13;;;;;;;;;20.50;18.50;;;;;27.45;47.37;99234.47;5093938;27;45711;-73
2023/06/25 10:33:39;;;;;;;;;16.00;15.50;;;;;27.54;47.05;99231.75;5095632;27;45550;-73
2023/06/25 10:36:10;;;;;;;;;20.00;17.50;;;;;27.63;47.54;99223.50;5094229;27;45467;-73
2023/06/25 10:38:36;;;;;;;;;18.40;16.80;;;;;27.70;47.09;99227.22;5096535;27;45534;-73
2023/06/25 10:41:02;;;;;;;;;18.00;18.00;;;;;27.78;47.31;99216.41;5089473;27;45638;-73
2023/06/25 10:43:27;;;;;;;;;19.50;19.00;;;;;27.87;46.58;99217.25;5089849;27;45495;-73
2023/06/25 10:45:55;;;;;;;;;17.00;16.50;;;;;27.95;45.78;99217.25;5091208;27;46630;-73
2023/06/25 10:48:22;;;;;;;;;17.50;16.50;;;;;28.00;46.31;99216.72;5095695;27;45546;-72
2023/06/25 10:50:48;;;;;;;;;17.00;17.00;;;;;28.06;46.53;99210.63;5091718;27;45396;-72
2023/06/25 10:53:20;;;;;;;;;20.25;17.75;;;;;28.15;46.76;99213.16;5095108;27;45356;-72
2023/06/25 10:55:50;;;;;;;;;20.00;19.50;;;;;28.26;46.47;99203.03;5087954;27;45365;-73
2023/06/25 10:58:17;;;;;;;;;22.50;19.25;;;;;28.36;46.58;99196.38;5092022;27;45435;-72
2023/06/25 11:00:43;;;;;;;;;19.00;18.50;;;;;28.46;46.49;99190.78;5092285;27;45444;-73
2023/06/25 11:03:09;;;;;;;;;16.50;16.50;;;;;28.55;46.03;99188.88;5091471;27;45411;-73
2023/06/25 11:05:39;;;;;;;;;20.50;19.00;;;;;28.63;46.03;99192.44;5092957;27;46057;-72
2023/06/25 11:08:06;;;;;;;;;19.00;17.25;;;;;28.70;45.58;99184.41;5092507;27;45499;-72
2023/06/25 11:10:32;;;;;;;;;15.25;15.25;;;;;28.73;45.68;99186.78;5068411;27;45554;-72
2023/06/25 11:12:58;;;;;;;;;15.75;14.50;;;;;28.78;44.31;99173.53;5092052;27;45540;-72